sensor_id;sensor_type;location;lat;lon;timestamp;P1;durP1;ratioP1;P2;durP2;ratioP2
26696;SDS011;14312;52.614;13.496;2023-04-25T00:01:34;2.00;;;1.80;;
26696;SDS011;14312;52.614;13.496;2023-04-25T00:04:21;4.70;;;1.98;;
26696;SDS011;14312;52.614;13.496;2023-04-25T00:07:08;1.95;;;1.70;;
26696;SDS011;14312;52.614;13.496;2023-04-25T00:09:54;1.95;;;1.85;;
26696;SDS011;14312;52.614;13.496;2023-04-25T00:12:40;2.08;;;1.88;;
26696;SDS011;14312;52.614;13.496;2023-04-25T00:15:27;2.35;;;1.80;;
26696;SDS011;14312;52.614;13.496;2023-04-25T00:18:14;2.00;;;1.80;;
26696;SDS011;14312;52.614;13.496;2023-04-25T00:21:00;2.67;;;2.30;;
26696;SDS011;14312;52.614;13.496;2023-04-25T00:23:47;2.15;;;1.95;;
26696;SDS011;14312;52.614;13.496;2023-04-25T00:26:33;3.30;;;2.20;;
26696;SDS011;14312;52.614;13.496;2023-04-25T00:29:21;3.42;;;2.50;;
26696;SDS011;14312;52.614;13.496;2023-04-25T00:32:07;2.80;;;2.15;;
26696;SDS011;14312;52.614;13.496;2023-04-25T00:34:53;2.53;;;1.85;;
26696;SDS011;14312;52.614;13.496;2023-04-25T00:37:41;4.70;;;2.00;;
26696;SDS011;14312;52.614;13.496;2023-04-25T00:40:27;1.67;;;1.50;;
26696;SDS011;14312;52.614;13.496;2023-04-25T00:43:13;2.33;;;1.70;;
26696;SDS011;14312;52.614;13.496;2023-04-25T00:46:00;1.75;;;1.65;;
26696;SDS011;14312;52.614;13.496;2023-04-25T00:48:46;2.42;;;1.80;;
26696;SDS011;14312;52.614;13.496;2023-04-25T00:51:32;3.15;;;1.95;;
26696;SDS011;14312;52.614;13.496;2023-04-25T00:54:18;2.42;;;1.92;;
26696;SDS011;14312;52.614;13.496;2023-04-25T00:57:04;3.65;;;2.08;;
26696;SDS011;14312;52.614;13.496;2023-04-25T00:59:51;3.00;;;1.80;;
26696;SDS011;14312;52.614;13.496;2023-04-25T01:02:38;2.22;;;1.90;;
26696;SDS011;14312;52.614;13.496;2023-04-25T01:05:27;2.80;;;2.00;;
26696;SDS011;14312;52.614;13.496;2023-04-25T01:08:13;3.90;;;2.08;;
26696;SDS011;14312;52.614;13.496;2023-04-25T01:11:00;2.13;;;1.58;;
26696;SDS011;14312;52.614;13.496;2023-04-25T01:13:46;2.80;;;1.98;;
26696;SDS011;14312;52.614;13.496;2023-04-25T01:16:32;2.72;;;2.00;;
26696;SDS011;14312;52.614;13.496;2023-04-25T01:19:18;4.43;;;2.10;;
26696;SDS011;14312;52.614;13.496;2023-04-25T01:22:05;3.35;;;1.95;;
26696;SDS011;14312;52.614;13.496;2023-04-25T01:24:51;2.42;;;1.90;;
26696;SDS011;14312;52.614;13.496;2023-04-25T01:27:38;4.35;;;1.92;;
26696;SDS011;14312;52.614;13.496;2023-04-25T01:30:25;3.17;;;1.92;;
26696;SDS011;14312;52.614;13.496;2023-04-25T01:33:13;3.47;;;2.10;;
26696;SDS011;14312;52.614;13.496;2023-04-25T01:36:00;1.95;;;1.67;;
26696;SDS011;14312;52.614;13.496;2023-04-25T01:38:46;2.58;;;2.00;;
26696;SDS011;14312;52.614;13.496;2023-04-25T01:41:33;2.78;;;1.83;;
26696;SDS011;14312;52.614;13.496;2023-04-25T01:44:22;2.45;;;1.80;;
26696;SDS011;14312;52.614;13.496;2023-04-25T01:47:08;3.40;;;2.30;;
26696;SDS011;14312;52.614;13.496;2023-04-25T01:49:54;4.95;;;1.83;;
26696;SDS011;14312;52.614;13.496;2023-04-25T01:52:41;4.95;;;2.65;;
26696;SDS011;14312;52.614;13.496;2023-04-25T01:55:27;2.47;;;2.00;;
26696;SDS011;14312;52.614;13.496;2023-04-25T01:58:14;4.25;;;2.08;;
26696;SDS011;14312;52.614;13.496;2023-04-25T02:01:00;2.90;;;2.05;;
26696;SDS011;14312;52.614;13.496;2023-04-25T02:03:46;4.80;;;2.22;;
26696;SDS011;14312;52.614;13.496;2023-04-25T02:06:33;3.65;;;1.90;;
26696;SDS011;14312;52.614;13.496;2023-04-25T02:09:19;4.65;;;2.00;;
26696;SDS011;14312;52.614;13.496;2023-04-25T02:12:07;3.65;;;2.05;;
26696;SDS011;14312;52.614;13.496;2023-04-25T02:14:54;4.72;;;2.10;;
26696;SDS011;14312;52.614;13.496;2023-04-25T02:17:40;3.63;;;2.00;;
26696;SDS011;14312;52.614;13.496;2023-04-25T02:20:26;3.13;;;2.00;;
26696;SDS011;14312;52.614;13.496;2023-04-25T02:23:14;2.90;;;1.77;;
26696;SDS011;14312;52.614;13.496;2023-04-25T02:26:01;2.97;;;2.20;;
26696;SDS011;14312;52.614;13.496;2023-04-25T02:28:48;3.35;;;2.10;;
26696;SDS011;14312;52.614;13.496;2023-04-25T02:31:34;3.53;;;2.13;;
26696;SDS011;14312;52.614;13.496;2023-04-25T02:34:20;2.95;;;2.08;;
26696;SDS011;14312;52.614;13.496;2023-04-25T02:37:06;3.13;;;2.20;;
26696;SDS011;14312;52.614;13.496;2023-04-25T02:39:52;2.78;;;1.95;;
26696;SDS011;14312;52.614;13.496;2023-04-25T02:42:39;4.00;;;2.25;;
26696;SDS011;14312;52.614;13.496;2023-04-25T02:45:26;3.95;;;2.55;;
26696;SDS011;14312;52.614;13.496;2023-04-25T02:48:12;3.72;;;3.03;;
26696;SDS011;14312;52.614;13.496;2023-04-25T02:50:58;5.25;;;2.53;;
26696;SDS011;14312;52.614;13.496;2023-04-25T02:53:44;2.83;;;2.60;;
26696;SDS011;14312;52.614;13.496;2023-04-25T02:56:30;3.00;;;2.65;;
26696;SDS011;14312;52.614;13.496;2023-04-25T02:59:17;3.83;;;2.85;;
26696;SDS011;14312;52.614;13.496;2023-04-25T03:02:03;2.88;;;2.25;;
26696;SDS011;14312;52.614;13.496;2023-04-25T03:04:49;5.50;;;2.67;;
26696;SDS011;14312;52.614;13.496;2023-04-25T03:07:35;4.53;;;2.50;;
26696;SDS011;14312;52.614;13.496;2023-04-25T03:10:21;6.32;;;2.97;;
26696;SDS011;14312;52.614;13.496;2023-04-25T03:13:07;3.88;;;2.78;;
26696;SDS011;14312;52.614;13.496;2023-04-25T03:15:53;3.33;;;2.40;;
26696;SDS011;14312;52.614;13.496;2023-04-25T03:18:39;5.00;;;2.55;;
26696;SDS011;14312;52.614;13.496;2023-04-25T03:21:25;3.38;;;2.78;;
26696;SDS011;14312;52.614;13.496;2023-04-25T03:24:12;5.55;;;3.08;;
26696;SDS011;14312;52.614;13.496;2023-04-25T03:26:58;4.47;;;2.78;;
26696;SDS011;14312;52.614;13.496;2023-04-25T03:29:44;4.40;;;2.80;;
26696;SDS011;14312;52.614;13.496;2023-04-25T03:32:31;3.67;;;2.72;;
26696;SDS011;14312;52.614;13.496;2023-04-25T03:35:17;5.03;;;3.20;;
26696;SDS011;14312;52.614;13.496;2023-04-25T03:38:03;3.30;;;2.53;;
26696;SDS011;14312;52.614;13.496;2023-04-25T03:40:49;3.88;;;2.50;;
26696;SDS011;14312;52.614;13.496;2023-04-25T03:43:37;3.42;;;2.78;;
26696;SDS011;14312;52.614;13.496;2023-04-25T03:46:23;3.35;;;2.50;;
26696;SDS011;14312;52.614;13.496;2023-04-25T03:49:09;6.25;;;2.90;;
26696;SDS011;14312;52.614;13.496;2023-04-25T03:51:56;3.28;;;2.38;;
26696;SDS011;14312;52.614;13.496;2023-04-25T03:54:41;4.10;;;2.75;;
26696;SDS011;14312;52.614;13.496;2023-04-25T03:57:28;5.50;;;2.80;;
26696;SDS011;14312;52.614;13.496;2023-04-25T04:00:14;6.85;;;3.10;;
26696;SDS011;14312;52.614;13.496;2023-04-25T04:03:01;4.30;;;3.15;;
26696;SDS011;14312;52.614;13.496;2023-04-25T04:05:47;5.97;;;3.15;;
26696;SDS011;14312;52.614;13.496;2023-04-25T04:08:33;3.92;;;3.22;;
26696;SDS011;14312;52.614;13.496;2023-04-25T04:11:19;4.97;;;2.80;;
26696;SDS011;14312;52.614;13.496;2023-04-25T04:14:06;6.35;;;3.15;;
26696;SDS011;14312;52.614;13.496;2023-04-25T04:16:53;4.50;;;2.53;;
26696;SDS011;14312;52.614;13.496;2023-04-25T04:19:38;4.97;;;3.53;;
26696;SDS011;14312;52.614;13.496;2023-04-25T04:22:24;5.32;;;3.08;;
26696;SDS011;14312;52.614;13.496;2023-04-25T04:25:11;4.93;;;2.50;;
26696;SDS011;14312;52.614;13.496;2023-04-25T04:27:57;4.90;;;2.47;;
26696;SDS011;14312;52.614;13.496;2023-04-25T04:30:44;3.75;;;2.30;;
26696;SDS011;14312;52.614;13.496;2023-04-25T04:33:32;6.90;;;2.45;;
26696;SDS011;14312;52.614;13.496;2023-04-25T04:36:18;3.25;;;2.10;;
26696;SDS011;14312;52.614;13.496;2023-04-25T04:39:07;6.65;;;2.90;;
26696;SDS011;14312;52.614;13.496;2023-04-25T04:41:54;2.88;;;2.58;;
26696;SDS011;14312;52.614;13.496;2023-04-25T04:44:40;2.58;;;2.20;;
26696;SDS011;14312;52.614;13.496;2023-04-25T04:47:26;3.65;;;2.40;;
26696;SDS011;14312;52.614;13.496;2023-04-25T04:50:16;5.57;;;2.65;;
26696;SDS011;14312;52.614;13.496;2023-04-25T04:53:03;2.75;;;2.17;;
26696;SDS011;14312;52.614;13.496;2023-04-25T04:55:49;3.97;;;2.22;;
26696;SDS011;14312;52.614;13.496;2023-04-25T04:58:36;2.40;;;2.20;;
26696;SDS011;14312;52.614;13.496;2023-04-25T05:01:22;3.05;;;2.22;;
26696;SDS011;14312;52.614;13.496;2023-04-25T05:04:08;4.05;;;2.28;;
26696;SDS011;14312;52.614;13.496;2023-04-25T05:06:54;3.30;;;2.40;;
26696;SDS011;14312;52.614;13.496;2023-04-25T05:09:40;3.13;;;2.53;;
26696;SDS011;14312;52.614;13.496;2023-04-25T05:12:26;3.60;;;2.25;;
26696;SDS011;14312;52.614;13.496;2023-04-25T05:15:12;4.70;;;2.50;;
26696;SDS011;14312;52.614;13.496;2023-04-25T05:17:58;3.95;;;2.10;;
26696;SDS011;14312;52.614;13.496;2023-04-25T05:20:44;4.22;;;2.50;;
26696;SDS011;14312;52.614;13.496;2023-04-25T05:23:30;2.80;;;2.53;;
26696;SDS011;14312;52.614;13.496;2023-04-25T05:26:16;5.80;;;2.88;;
26696;SDS011;14312;52.614;13.496;2023-04-25T05:29:02;3.03;;;2.08;;
26696;SDS011;14312;52.614;13.496;2023-04-25T05:31:48;3.10;;;2.38;;
26696;SDS011;14312;52.614;13.496;2023-04-25T05:34:34;4.47;;;2.45;;
26696;SDS011;14312;52.614;13.496;2023-04-25T05:37:20;5.22;;;1.98;;
26696;SDS011;14312;52.614;13.496;2023-04-25T05:40:07;4.18;;;3.15;;
26696;SDS011;14312;52.614;13.496;2023-04-25T05:42:54;3.13;;;2.28;;
26696;SDS011;14312;52.614;13.496;2023-04-25T05:45:40;2.75;;;2.33;;
26696;SDS011;14312;52.614;13.496;2023-04-25T05:48:26;5.65;;;2.88;;
26696;SDS011;14312;52.614;13.496;2023-04-25T05:51:12;3.53;;;2.30;;
26696;SDS011;14312;52.614;13.496;2023-04-25T05:53:58;4.00;;;2.35;;
26696;SDS011;14312;52.614;13.496;2023-04-25T05:56:44;3.92;;;2.45;;
26696;SDS011;14312;52.614;13.496;2023-04-25T05:59:30;4.15;;;2.20;;
26696;SDS011;14312;52.614;13.496;2023-04-25T06:02:16;2.13;;;1.92;;
26696;SDS011;14312;52.614;13.496;2023-04-25T06:05:03;4.32;;;3.00;;
26696;SDS011;14312;52.614;13.496;2023-04-25T06:07:49;4.57;;;2.67;;
26696;SDS011;14312;52.614;13.496;2023-04-25T06:10:36;3.75;;;2.83;;
26696;SDS011;14312;52.614;13.496;2023-04-25T06:13:22;2.60;;;2.35;;
26696;SDS011;14312;52.614;13.496;2023-04-25T06:16:08;3.30;;;2.33;;
26696;SDS011;14312;52.614;13.496;2023-04-25T06:18:54;3.25;;;2.47;;
26696;SDS011;14312;52.614;13.496;2023-04-25T06:21:41;4.00;;;2.80;;
26696;SDS011;14312;52.614;13.496;2023-04-25T06:24:28;5.53;;;2.45;;
26696;SDS011;14312;52.614;13.496;2023-04-25T06:27:14;3.45;;;2.45;;
26696;SDS011;14312;52.614;13.496;2023-04-25T06:30:00;3.63;;;2.65;;
26696;SDS011;14312;52.614;13.496;2023-04-25T06:32:46;4.32;;;2.45;;
26696;SDS011;14312;52.614;13.496;2023-04-25T06:35:33;4.05;;;3.05;;
26696;SDS011;14312;52.614;13.496;2023-04-25T06:38:19;4.05;;;2.90;;
26696;SDS011;14312;52.614;13.496;2023-04-25T06:41:05;3.67;;;2.53;;
26696;SDS011;14312;52.614;13.496;2023-04-25T06:43:51;3.80;;;2.78;;
26696;SDS011;14312;52.614;13.496;2023-04-25T06:46:37;4.05;;;2.70;;
26696;SDS011;14312;52.614;13.496;2023-04-25T06:49:23;3.65;;;2.50;;
26696;SDS011;14312;52.614;13.496;2023-04-25T06:52:09;4.15;;;2.55;;
26696;SDS011;14312;52.614;13.496;2023-04-25T06:54:56;3.55;;;2.58;;
26696;SDS011;14312;52.614;13.496;2023-04-25T06:57:42;3.83;;;2.67;;
26696;SDS011;14312;52.614;13.496;2023-04-25T07:00:28;4.18;;;2.53;;
26696;SDS011;14312;52.614;13.496;2023-04-25T07:03:14;3.47;;;2.80;;
26696;SDS011;14312;52.614;13.496;2023-04-25T07:06:00;3.25;;;2.40;;
26696;SDS011;14312;52.614;13.496;2023-04-25T07:08:46;3.85;;;2.40;;
26696;SDS011;14312;52.614;13.496;2023-04-25T07:11:32;2.63;;;2.42;;
26696;SDS011;14312;52.614;13.496;2023-04-25T07:14:18;2.67;;;2.30;;
26696;SDS011;14312;52.614;13.496;2023-04-25T07:17:04;3.28;;;2.60;;
26696;SDS011;14312;52.614;13.496;2023-04-25T07:19:52;2.50;;;2.30;;
26696;SDS011;14312;52.614;13.496;2023-04-25T07:22:38;3.10;;;2.53;;
26696;SDS011;14312;52.614;13.496;2023-04-25T07:25:24;4.20;;;2.67;;
26696;SDS011;14312;52.614;13.496;2023-04-25T07:28:10;3.40;;;2.28;;
26696;SDS011;14312;52.614;13.496;2023-04-25T07:30:56;3.05;;;2.20;;
26696;SDS011;14312;52.614;13.496;2023-04-25T07:33:44;3.53;;;1.90;;
26696;SDS011;14312;52.614;13.496;2023-04-25T07:36:31;3.95;;;2.40;;
26696;SDS011;14312;52.614;13.496;2023-04-25T07:39:17;5.43;;;2.33;;
26696;SDS011;14312;52.614;13.496;2023-04-25T07:42:03;4.80;;;2.50;;
26696;SDS011;14312;52.614;13.496;2023-04-25T07:44:49;4.50;;;2.10;;
26696;SDS011;14312;52.614;13.496;2023-04-25T07:47:47;5.07;;;2.85;;
26696;SDS011;14312;52.614;13.496;2023-04-25T07:50:33;5.88;;;2.58;;
26696;SDS011;14312;52.614;13.496;2023-04-25T07:53:19;3.42;;;2.22;;
26696;SDS011;14312;52.614;13.496;2023-04-25T07:56:05;5.05;;;2.50;;
26696;SDS011;14312;52.614;13.496;2023-04-25T07:58:51;4.90;;;2.70;;
26696;SDS011;14312;52.614;13.496;2023-04-25T08:01:37;3.38;;;2.28;;
26696;SDS011;14312;52.614;13.496;2023-04-25T08:04:23;3.47;;;2.33;;
26696;SDS011;14312;52.614;13.496;2023-04-25T08:07:09;4.28;;;2.75;;
26696;SDS011;14312;52.614;13.496;2023-04-25T08:09:55;6.65;;;2.90;;
26696;SDS011;14312;52.614;13.496;2023-04-25T08:12:41;5.18;;;2.38;;
26696;SDS011;14312;52.614;13.496;2023-04-25T08:15:27;3.80;;;2.38;;
26696;SDS011;14312;52.614;13.496;2023-04-25T08:18:13;6.43;;;2.83;;
26696;SDS011;14312;52.614;13.496;2023-04-25T08:20:59;3.17;;;2.42;;
26696;SDS011;14312;52.614;13.496;2023-04-25T08:23:45;5.88;;;2.70;;
26696;SDS011;14312;52.614;13.496;2023-04-25T08:26:31;5.78;;;2.22;;
26696;SDS011;14312;52.614;13.496;2023-04-25T08:29:18;2.65;;;1.90;;
26696;SDS011;14312;52.614;13.496;2023-04-25T08:32:04;6.97;;;2.55;;
26696;SDS011;14312;52.614;13.496;2023-04-25T08:34:50;5.70;;;2.45;;
26696;SDS011;14312;52.614;13.496;2023-04-25T08:37:39;7.65;;;2.28;;
26696;SDS011;14312;52.614;13.496;2023-04-25T08:40:26;7.30;;;2.10;;
26696;SDS011;14312;52.614;13.496;2023-04-25T08:43:15;3.58;;;2.00;;
26696;SDS011;14312;52.614;13.496;2023-04-25T08:46:04;5.72;;;2.10;;
26696;SDS011;14312;52.614;13.496;2023-04-25T08:48:51;8.85;;;2.83;;
26696;SDS011;14312;52.614;13.496;2023-04-25T08:51:45;7.10;;;2.45;;
26696;SDS011;14312;52.614;13.496;2023-04-25T08:54:32;7.85;;;3.00;;
26696;SDS011;14312;52.614;13.496;2023-04-25T08:57:19;6.00;;;2.58;;
26696;SDS011;14312;52.614;13.496;2023-04-25T09:00:07;7.88;;;2.35;;
26696;SDS011;14312;52.614;13.496;2023-04-25T09:02:53;5.32;;;2.70;;
26696;SDS011;14312;52.614;13.496;2023-04-25T09:05:40;8.68;;;2.78;;
26696;SDS011;14312;52.614;13.496;2023-04-25T09:08:27;6.75;;;2.20;;
26696;SDS011;14312;52.614;13.496;2023-04-25T09:11:13;7.28;;;2.50;;
26696;SDS011;14312;52.614;13.496;2023-04-25T09:14:10;4.55;;;2.58;;
26696;SDS011;14312;52.614;13.496;2023-04-25T09:17:03;6.40;;;2.40;;
26696;SDS011;14312;52.614;13.496;2023-04-25T09:19:50;4.97;;;2.47;;
26696;SDS011;14312;52.614;13.496;2023-04-25T09:22:37;12.02;;;2.85;;
26696;SDS011;14312;52.614;13.496;2023-04-25T09:25:23;4.63;;;1.95;;
26696;SDS011;14312;52.614;13.496;2023-04-25T09:28:10;6.82;;;2.60;;
26696;SDS011;14312;52.614;13.496;2023-04-25T09:30:56;6.07;;;2.40;;
26696;SDS011;14312;52.614;13.496;2023-04-25T09:33:43;7.55;;;2.65;;
26696;SDS011;14312;52.614;13.496;2023-04-25T09:36:29;5.55;;;2.00;;
26696;SDS011;14312;52.614;13.496;2023-04-25T09:39:16;4.88;;;1.92;;
26696;SDS011;14312;52.614;13.496;2023-04-25T09:42:03;3.95;;;2.10;;
26696;SDS011;14312;52.614;13.496;2023-04-25T09:44:53;4.70;;;2.13;;
26696;SDS011;14312;52.614;13.496;2023-04-25T09:47:40;4.28;;;2.33;;
26696;SDS011;14312;52.614;13.496;2023-04-25T09:50:25;5.35;;;2.15;;
26696;SDS011;14312;52.614;13.496;2023-04-25T09:53:12;5.65;;;2.13;;
26696;SDS011;14312;52.614;13.496;2023-04-25T09:55:59;4.75;;;2.10;;
26696;SDS011;14312;52.614;13.496;2023-04-25T09:58:45;4.22;;;2.00;;
26696;SDS011;14312;52.614;13.496;2023-04-25T10:01:32;4.15;;;1.90;;
26696;SDS011;14312;52.614;13.496;2023-04-25T10:04:22;3.85;;;1.70;;
26696;SDS011;14312;52.614;13.496;2023-04-25T10:07:09;3.88;;;2.08;;
26696;SDS011;14312;52.614;13.496;2023-04-25T10:10:00;5.53;;;2.08;;
26696;SDS011;14312;52.614;13.496;2023-04-25T10:12:48;3.80;;;1.75;;
26696;SDS011;14312;52.614;13.496;2023-04-25T10:15:35;5.68;;;2.20;;
26696;SDS011;14312;52.614;13.496;2023-04-25T10:18:22;6.00;;;2.70;;
26696;SDS011;14312;52.614;13.496;2023-04-25T10:21:09;4.95;;;1.80;;
26696;SDS011;14312;52.614;13.496;2023-04-25T10:23:56;2.88;;;1.60;;
26696;SDS011;14312;52.614;13.496;2023-04-25T10:26:42;4.30;;;1.60;;
26696;SDS011;14312;52.614;13.496;2023-04-25T10:29:29;4.30;;;1.80;;
26696;SDS011;14312;52.614;13.496;2023-04-25T10:32:15;3.03;;;1.60;;
26696;SDS011;14312;52.614;13.496;2023-04-25T10:35:14;2.33;;;1.45;;
26696;SDS011;14312;52.614;13.496;2023-04-25T10:38:09;2.42;;;1.75;;
26696;SDS011;14312;52.614;13.496;2023-04-25T10:41:02;4.70;;;1.95;;
26696;SDS011;14312;52.614;13.496;2023-04-25T10:43:59;6.72;;;1.88;;
26696;SDS011;14312;52.614;13.496;2023-04-25T10:46:46;3.47;;;1.95;;
26696;SDS011;14312;52.614;13.496;2023-04-25T10:49:33;3.70;;;1.70;;
26696;SDS011;14312;52.614;13.496;2023-04-25T10:52:26;3.40;;;1.70;;
26696;SDS011;14312;52.614;13.496;2023-04-25T10:55:13;3.47;;;1.70;;
26696;SDS011;14312;52.614;13.496;2023-04-25T10:58:00;6.18;;;2.20;;
26696;SDS011;14312;52.614;13.496;2023-04-25T11:00:46;3.10;;;1.63;;
26696;SDS011;14312;52.614;13.496;2023-04-25T11:03:32;4.22;;;2.03;;
26696;SDS011;14312;52.614;13.496;2023-04-25T11:06:28;2.08;;;1.60;;
26696;SDS011;14312;52.614;13.496;2023-04-25T11:09:17;2.97;;;1.70;;
26696;SDS011;14312;52.614;13.496;2023-04-25T11:12:03;4.32;;;1.60;;
26696;SDS011;14312;52.614;13.496;2023-04-25T11:14:50;3.28;;;1.70;;
26696;SDS011;14312;52.614;13.496;2023-04-25T11:17:37;2.60;;;1.50;;
26696;SDS011;14312;52.614;13.496;2023-04-25T11:20:26;1.77;;;1.27;;
26696;SDS011;14312;52.614;13.496;2023-04-25T11:23:14;2.63;;;1.30;;
26696;SDS011;14312;52.614;13.496;2023-04-25T11:26:01;2.63;;;1.35;;
26696;SDS011;14312;52.614;13.496;2023-04-25T11:28:48;2.22;;;1.40;;
26696;SDS011;14312;52.614;13.496;2023-04-25T11:31:34;4.00;;;1.65;;
26696;SDS011;14312;52.614;13.496;2023-04-25T11:34:21;6.55;;;1.63;;
26696;SDS011;14312;52.614;13.496;2023-04-25T11:37:07;2.78;;;1.50;;
26696;SDS011;14312;52.614;13.496;2023-04-25T11:39:53;2.40;;;1.40;;
26696;SDS011;14312;52.614;13.496;2023-04-25T11:42:42;4.72;;;1.45;;
26696;SDS011;14312;52.614;13.496;2023-04-25T11:45:29;3.42;;;1.20;;
26696;SDS011;14312;52.614;13.496;2023-04-25T11:48:16;3.30;;;1.50;;
26696;SDS011;14312;52.614;13.496;2023-04-25T11:51:03;3.65;;;1.60;;
26696;SDS011;14312;52.614;13.496;2023-04-25T11:53:49;3.80;;;1.90;;
26696;SDS011;14312;52.614;13.496;2023-04-25T11:56:36;3.92;;;1.77;;
26696;SDS011;14312;52.614;13.496;2023-04-25T11:59:25;3.25;;;1.60;;
26696;SDS011;14312;52.614;13.496;2023-04-25T12:02:23;2.15;;;1.30;;
26696;SDS011;14312;52.614;13.496;2023-04-25T12:05:11;6.07;;;1.80;;
26696;SDS011;14312;52.614;13.496;2023-04-25T12:08:15;2.85;;;1.40;;
26696;SDS011;14312;52.614;13.496;2023-04-25T12:11:01;2.83;;;1.55;;
26696;SDS011;14312;52.614;13.496;2023-04-25T12:13:51;3.45;;;1.55;;
26696;SDS011;14312;52.614;13.496;2023-04-25T12:16:45;2.08;;;1.30;;
26696;SDS011;14312;52.614;13.496;2023-04-25T12:19:33;4.43;;;1.40;;
26696;SDS011;14312;52.614;13.496;2023-04-25T12:22:20;1.92;;;1.20;;
26696;SDS011;14312;52.614;13.496;2023-04-25T12:25:09;3.88;;;1.52;;
26696;SDS011;14312;52.614;13.496;2023-04-25T12:27:55;4.10;;;1.42;;
26696;SDS011;14312;52.614;13.496;2023-04-25T12:33:43;2.53;;;1.42;;
26696;SDS011;14312;52.614;13.496;2023-04-25T12:36:33;3.15;;;1.40;;
26696;SDS011;14312;52.614;13.496;2023-04-25T12:39:23;2.22;;;1.30;;
26696;SDS011;14312;52.614;13.496;2023-04-25T12:42:11;3.05;;;1.50;;
26696;SDS011;14312;52.614;13.496;2023-04-25T12:44:57;3.10;;;1.50;;
26696;SDS011;14312;52.614;13.496;2023-04-25T12:47:43;4.15;;;1.70;;
26696;SDS011;14312;52.614;13.496;2023-04-25T12:50:29;2.97;;;1.80;;
26696;SDS011;14312;52.614;13.496;2023-04-25T12:53:24;2.85;;;1.20;;
26696;SDS011;14312;52.614;13.496;2023-04-25T12:56:10;2.17;;;1.50;;
26696;SDS011;14312;52.614;13.496;2023-04-25T12:58:57;1.95;;;1.63;;
26696;SDS011;14312;52.614;13.496;2023-04-25T13:01:43;3.17;;;1.90;;
26696;SDS011;14312;52.614;13.496;2023-04-25T13:04:30;2.45;;;1.50;;
26696;SDS011;14312;52.614;13.496;2023-04-25T13:07:16;2.83;;;1.50;;
26696;SDS011;14312;52.614;13.496;2023-04-25T13:10:02;5.00;;;1.75;;
26696;SDS011;14312;52.614;13.496;2023-04-25T13:12:49;2.65;;;1.48;;
26696;SDS011;14312;52.614;13.496;2023-04-25T13:15:35;3.13;;;1.60;;
26696;SDS011;14312;52.614;13.496;2023-04-25T13:18:22;2.47;;;1.40;;
26696;SDS011;14312;52.614;13.496;2023-04-25T13:21:11;2.40;;;1.40;;
26696;SDS011;14312;52.614;13.496;2023-04-25T13:23:57;2.63;;;1.48;;
26696;SDS011;14312;52.614;13.496;2023-04-25T13:26:43;2.72;;;1.55;;
26696;SDS011;14312;52.614;13.496;2023-04-25T13:29:29;2.03;;;1.33;;
26696;SDS011;14312;52.614;13.496;2023-04-25T13:32:15;2.15;;;1.30;;
26696;SDS011;14312;52.614;13.496;2023-04-25T13:35:05;3.75;;;1.48;;
26696;SDS011;14312;52.614;13.496;2023-04-25T13:37:53;3.25;;;1.50;;
26696;SDS011;14312;52.614;13.496;2023-04-25T13:40:39;2.80;;;1.60;;
26696;SDS011;14312;52.614;13.496;2023-04-25T13:43:25;3.08;;;1.40;;
26696;SDS011;14312;52.614;13.496;2023-04-25T13:46:11;9.75;;;1.50;;
26696;SDS011;14312;52.614;13.496;2023-04-25T13:48:58;1.70;;;1.10;;
26696;SDS011;14312;52.614;13.496;2023-04-25T13:51:44;1.67;;;1.20;;
26696;SDS011;14312;52.614;13.496;2023-04-25T13:54:31;3.13;;;1.25;;
26696;SDS011;14312;52.614;13.496;2023-04-25T13:57:17;2.47;;;1.25;;
26696;SDS011;14312;52.614;13.496;2023-04-25T14:00:04;2.95;;;1.40;;
26696;SDS011;14312;52.614;13.496;2023-04-25T14:02:54;3.88;;;1.40;;
26696;SDS011;14312;52.614;13.496;2023-04-25T14:05:40;2.20;;;1.10;;
26696;SDS011;14312;52.614;13.496;2023-04-25T14:08:26;1.80;;;1.20;;
26696;SDS011;14312;52.614;13.496;2023-04-25T14:11:12;4.07;;;1.20;;
26696;SDS011;14312;52.614;13.496;2023-04-25T14:13:58;2.50;;;1.10;;
26696;SDS011;14312;52.614;13.496;2023-04-25T14:16:44;1.67;;;1.23;;
26696;SDS011;14312;52.614;13.496;2023-04-25T14:19:31;2.15;;;1.10;;
26696;SDS011;14312;52.614;13.496;2023-04-25T14:22:17;2.35;;;1.17;;
26696;SDS011;14312;52.614;13.496;2023-04-25T14:25:03;1.35;;;0.95;;
26696;SDS011;14312;52.614;13.496;2023-04-25T14:27:49;2.53;;;1.30;;
26696;SDS011;14312;52.614;13.496;2023-04-25T14:30:35;2.83;;;1.30;;
26696;SDS011;14312;52.614;13.496;2023-04-25T14:33:21;3.53;;;1.50;;
26696;SDS011;14312;52.614;13.496;2023-04-25T14:36:07;3.47;;;1.08;;
26696;SDS011;14312;52.614;13.496;2023-04-25T14:38:53;1.88;;;1.30;;
26696;SDS011;14312;52.614;13.496;2023-04-25T14:41:39;2.85;;;1.05;;
26696;SDS011;14312;52.614;13.496;2023-04-25T14:44:25;2.13;;;1.27;;
26696;SDS011;14312;52.614;13.496;2023-04-25T14:47:11;3.33;;;1.48;;
26696;SDS011;14312;52.614;13.496;2023-04-25T14:49:58;1.73;;;1.10;;
26696;SDS011;14312;52.614;13.496;2023-04-25T14:52:44;2.85;;;1.58;;
26696;SDS011;14312;52.614;13.496;2023-04-25T14:55:30;1.30;;;1.10;;
26696;SDS011;14312;52.614;13.496;2023-04-25T14:58:16;1.70;;;1.17;;
26696;SDS011;14312;52.614;13.496;2023-04-25T15:01:03;1.55;;;1.20;;
26696;SDS011;14312;52.614;13.496;2023-04-25T15:03:49;1.90;;;0.95;;
26696;SDS011;14312;52.614;13.496;2023-04-25T15:06:36;2.72;;;1.17;;
26696;SDS011;14312;52.614;13.496;2023-04-25T15:09:23;5.70;;;1.83;;
26696;SDS011;14312;52.614;13.496;2023-04-25T15:12:09;2.83;;;1.30;;
26696;SDS011;14312;52.614;13.496;2023-04-25T15:14:56;2.85;;;1.10;;
26696;SDS011;14312;52.614;13.496;2023-04-25T15:17:42;2.28;;;1.25;;
26696;SDS011;14312;52.614;13.496;2023-04-25T15:20:28;3.33;;;1.25;;
26696;SDS011;14312;52.614;13.496;2023-04-25T15:23:14;1.42;;;1.00;;
26696;SDS011;14312;52.614;13.496;2023-04-25T15:26:00;2.65;;;1.23;;
26696;SDS011;14312;52.614;13.496;2023-04-25T15:28:46;3.08;;;1.40;;
26696;SDS011;14312;52.614;13.496;2023-04-25T15:31:32;3.92;;;0.98;;
26696;SDS011;14312;52.614;13.496;2023-04-25T15:34:17;1.55;;;1.17;;
26696;SDS011;14312;52.614;13.496;2023-04-25T15:37:03;1.80;;;1.10;;
26696;SDS011;14312;52.614;13.496;2023-04-25T15:39:54;2.00;;;1.20;;
26696;SDS011;14312;52.614;13.496;2023-04-25T15:42:47;2.08;;;1.00;;
26696;SDS011;14312;52.614;13.496;2023-04-25T15:45:38;2.22;;;1.05;;
26696;SDS011;14312;52.614;13.496;2023-04-25T15:48:24;2.17;;;1.00;;
26696;SDS011;14312;52.614;13.496;2023-04-25T15:51:09;2.45;;;1.00;;
26696;SDS011;14312;52.614;13.496;2023-04-25T15:53:56;2.28;;;1.08;;
26696;SDS011;14312;52.614;13.496;2023-04-25T15:56:42;2.85;;;1.08;;
26696;SDS011;14312;52.614;13.496;2023-04-25T15:59:28;2.85;;;1.30;;
26696;SDS011;14312;52.614;13.496;2023-04-25T16:02:14;1.92;;;1.08;;
26696;SDS011;14312;52.614;13.496;2023-04-25T16:05:01;2.63;;;1.10;;
26696;SDS011;14312;52.614;13.496;2023-04-25T16:07:50;2.47;;;1.10;;
26696;SDS011;14312;52.614;13.496;2023-04-25T16:10:38;2.00;;;1.00;;
26696;SDS011;14312;52.614;13.496;2023-04-25T16:13:24;1.75;;;0.90;;
26696;SDS011;14312;52.614;13.496;2023-04-25T16:16:11;1.88;;;1.10;;
26696;SDS011;14312;52.614;13.496;2023-04-25T16:18:57;0.88;;;0.77;;
26696;SDS011;14312;52.614;13.496;2023-04-25T16:21:43;1.92;;;1.20;;
26696;SDS011;14312;52.614;13.496;2023-04-25T16:24:29;1.63;;;1.30;;
26696;SDS011;14312;52.614;13.496;2023-04-25T16:27:15;2.60;;;1.13;;
26696;SDS011;14312;52.614;13.496;2023-04-25T16:30:01;1.45;;;0.90;;
26696;SDS011;14312;52.614;13.496;2023-04-25T16:32:47;1.20;;;1.10;;